Time;durP1;ratioP1;P1;durP2;ratioP2;P2;SDS_P1;SDS_P2;PMS_P1;PMS_P2;Temp;Humidity;BMP_temperature;BMP_pressure;BME280_temperature;BME280_humidity;BME280_pressure;Samples;Min_cycle;Max_cycle;Signal;HPM_P1;HPM_P2
2021/07/23 00:00:55;;;;;;;20.80;14.45;;;;;;;22.93;100.00;96418.59;5022903;28;20073;-46
2021/07/23 00:03:24;;;;;;;22.48;15.43;;;;;;;23.62;100.00;96411.13;5014113;28;20061;-51
2021/07/23 00:05:53;;;;;;;25.27;14.27;;;;;;;23.69;100.00;96407.31;5019281;28;20065;-47
2021/07/23 00:08:22;;;;;;;20.75;15.68;;;;;;;23.78;100.00;96402.44;5026549;28;20550;-52
2021/07/23 00:10:50;;;;;;;21.77;15.15;;;;;;;23.68;100.00;96399.50;5021758;28;20963;-50
2021/07/23 00:13:18;;;;;;;19.40;14.88;;;;;;;23.57;100.00;96398.38;5017256;28;20065;-50
2021/07/23 00:15:48;;;;;;;24.52;15.23;;;;;;;23.52;100.00;96394.69;5022635;28;20063;-56
2021/07/23 00:18:17;;;;;;;21.05;15.45;;;;;;;23.68;100.00;96404.88;5012327;28;20065;-48
2021/07/23 00:20:45;;;;;;;19.98;15.40;;;;;;;23.90;100.00;96402.47;5011129;28;20062;-52
2021/07/23 00:23:13;;;;;;;21.08;16.55;;;;;;;23.68;100.00;96399.50;5018030;28;20077;-46
2021/07/23 00:25:42;;;;;;;21.73;16.20;;;;;;;23.63;100.00;96397.44;5021770;28;20449;-47
2021/07/23 00:28:10;;;;;;;22.67;17.15;;;;;;;23.95;100.00;96394.53;5019906;28;20060;-49
2021/07/23 00:30:39;;;;;;;21.58;16.15;;;;;;;23.79;100.00;96397.88;5019621;28;20460;-46
2021/07/23 00:33:08;;;;;;;19.50;14.82;;;;;;;23.52;100.00;96389.31;5012185;28;20072;-47
2021/07/23 00:35:37;;;;;;;20.90;15.15;;;;;;;23.98;100.00;96394.03;5019376;28;20483;-46
2021/07/23 00:38:05;;;;;;;21.88;15.10;;;;;;;23.68;100.00;96386.84;5026664;28;20088;-47
2021/07/23 00:40:34;;;;;;;22.10;16.73;;;;;;;23.42;100.00;96384.47;5019350;28;20061;-54
2021/07/23 00:43:02;;;;;;;23.52;16.55;;;;;;;23.41;100.00;96388.22;5019462;28;20072;-48
2021/07/23 00:45:31;;;;;;;22.92;16.63;;;;;;;23.24;100.00;96382.66;5014493;28;20091;-49
2021/07/23 00:48:01;;;;;;;23.67;17.13;;;;;;;23.47;100.00;96384.63;5014192;28;20065;-47
2021/07/23 00:50:32;;;;;;;25.52;16.73;;;;;;;23.44;100.00;96383.22;5017779;28;20634;-50
2021/07/23 00:53:00;;;;;;;24.55;16.88;;;;;;;23.69;100.00;96375.00;5025586;28;20084;-54
2021/07/23 00:55:29;;;;;;;22.92;16.88;;;;;;;23.41;100.00;96374.75;5013974;28;20073;-46
2021/07/23 00:57:59;;;;;;;21.15;16.23;;;;;;;23.48;100.00;96364.72;5019558;28;20515;-49
2021/07/23 01:00:27;;;;;;;19.10;14.48;;;;;;;22.96;100.00;96364.38;5020137;28;20484;-58
2021/07/23 01:02:56;;;;;;;19.33;14.88;;;;;;;23.13;100.00;96367.28;5013159;28;20425;-51
2021/07/23 01:05:24;;;;;;;21.90;14.80;;;;;;;23.18;100.00;96364.72;5016488;28;20089;-49
2021/07/23 01:07:54;;;;;;;17.80;13.82;;;;;;;22.83;100.00;96368.00;5020661;28;20073;-53
2021/07/23 01:10:24;;;;;;;17.60;13.85;;;;;;;22.39;100.00;96377.13;5019920;28;20038;-48
2021/07/23 01:12:52;;;;;;;22.45;14.68;;;;;;;22.51;100.00;96376.19;5016997;28;20539;-46
2021/07/23 01:15:20;;;;;;;21.20;14.95;;;;;;;22.94;100.00;96374.50;5021913;28;20072;-48
2021/07/23 01:17:49;;;;;;;19.60;14.65;;;;;;;22.70;100.00;96376.19;5009805;28;20065;-46
2021/07/23 01:20:21;;;;;;;22.30;14.85;;;;;;;22.92;100.00;96368.53;5020147;28;20102;-45
2021/07/23 01:22:50;;;;;;;20.02;13.90;;;;;;;22.85;100.00;96371.28;5012194;28;20058;-46
2021/07/23 01:25:20;;;;;;;16.48;13.38;;;;;;;22.84;100.00;96369.63;5019967;28;20547;-51
2021/07/23 01:27:50;;;;;;;18.40;12.88;;;;;;;22.82;100.00;96370.91;5016830;28;20084;-48
2021/07/23 01:30:21;;;;;;;21.95;14.65;;;;;;;22.75;100.00;96376.38;5020482;28;20547;-50
2021/07/23 01:32:50;;;;;;;17.88;14.25;;;;;;;22.09;100.00;96374.25;5020077;28;20076;-51
2021/07/23 01:35:18;;;;;;;21.77;14.73;;;;;;;22.24;100.00;96366.72;5024851;28;20098;-46
2021/07/23 01:37:47;;;;;;;21.63;15.25;;;;;;;22.49;100.00;96370.19;5019878;28;20069;-52
2021/07/23 01:40:16;;;;;;;21.25;14.50;;;;;;;22.98;100.00;96368.44;5022825;28;20062;-47
2021/07/23 01:42:48;;;;;;;19.33;13.52;;;;;;;22.69;100.00;96367.31;5031277;28;20444;-45
2021/07/23 01:45:17;;;;;;;21.02;14.23;;;;;;;22.46;100.00;96370.63;5019619;28;20073;-47
2021/07/23 01:47:46;;;;;;;22.13;14.10;;;;;;;21.60;100.00;96357.06;5017889;28;20077;-48
2021/07/23 01:50:14;;;;;;;21.60;15.27;;;;;;;21.59;100.00;96355.44;5023180;28;20080;-49
2021/07/23 01:52:43;;;;;;;21.05;15.60;;;;;;;21.76;100.00;96361.91;5018243;28;20069;-46
2021/07/23 01:55:12;;;;;;;22.85;16.58;;;;;;;21.89;100.00;96366.38;5018525;28;21876;-45
2021/07/23 01:57:40;;;;;;;21.15;16.23;;;;;;;22.75;100.00;96357.53;5017904;28;20061;-49
2021/07/23 02:00:11;;;;;;;20.55;14.23;;;;;;;22.91;100.00;96356.91;5018965;28;20080;-49
2021/07/23 02:02:39;;;;;;;17.40;13.85;;;;;;;22.69;100.00;96363.81;5017024;28;20092;-48
2021/07/23 02:05:09;;;;;;;17.38;13.93;;;;;;;22.83;100.00;96359.09;5021504;28;20092;-46
2021/07/23 02:07:38;;;;;;;18.57;14.07;;;;;;;23.13;100.00;96353.81;5023373;28;20092;-49
2021/07/23 02:10:07;;;;;;;17.05;13.52;;;;;;;22.62;100.00;96352.31;5019155;28;20092;-46
2021/07/23 02:12:35;;;;;;;23.52;14.55;;;;;;;22.97;100.00;96349.88;5012837;28;20069;-49
2021/07/23 02:15:06;;;;;;;23.33;15.38;;;;;;;22.97;100.00;96349.88;5016724;28;20080;-50
2021/07/23 02:17:36;;;;;;;21.67;13.82;;;;;;;23.10;100.00;96349.72;5019613;28;20084;-47
2021/07/23 02:20:05;;;;;;;21.33;14.45;;;;;;;22.97;100.00;96356.06;5024289;28;20077;-47
2021/07/23 02:22:36;;;;;;;21.17;12.68;;;;;;;22.84;100.00;96361.56;5015744;28;20061;-46
2021/07/23 02:25:06;;;;;;;15.63;12.57;;;;;;;22.64;100.00;96353.75;5024066;28;20069;-46
2021/07/23 02:27:34;;;;;;;18.37;13.47;;;;;;;22.52;100.00;96363.56;5022498;28;20072;-48
2021/07/23 02:30:03;;;;;;;19.23;13.20;;;;;;;22.13;100.00;96367.44;5016910;28;20065;-44
2021/07/23 02:32:32;;;;;;;18.70;13.98;;;;;;;22.46;100.00;96362.56;5014475;28;20562;-48
2021/07/23 02:35:02;;;;;;;22.33;14.40;;;;;;;22.25;100.00;96363.00;5027521;28;20113;-51
2021/07/23 02:37:31;;;;;;;18.25;13.23;;;;;;;22.90;100.00;96357.97;5019334;28;20069;-47
2021/07/23 02:39:59;;;;;;;21.17;14.70;;;;;;;22.34;100.00;96364.38;5012403;28;20130;-44
2021/07/23 02:42:27;;;;;;;19.33;14.57;;;;;;;23.07;100.00;96362.78;5020002;28;20096;-44
2021/07/23 02:45:08;;;;;;;21.70;15.05;;;;;;;22.88;100.00;96356.56;5019371;28;20081;-51
2021/07/23 02:47:37;;;;;;;20.23;15.50;;;;;;;21.99;100.00;96364.84;5021693;28;20089;-48
2021/07/23 02:50:08;;;;;;;21.80;14.77;;;;;;;21.73;100.00;96356.97;5024059;28;20076;-46
2021/07/23 02:52:36;;;;;;;25.75;15.05;;;;;;;21.99;100.00;96359.47;5017331;28;20092;-44
2021/07/23 02:55:05;;;;;;;25.38;15.80;;;;;;;22.09;100.00;96355.47;5015224;28;20069;-44
2021/07/23 02:57:34;;;;;;;25.30;16.00;;;;;;;22.58;100.00;96357.31;5018800;28;20065;-45
2021/07/23 03:00:02;;;;;;;19.70;14.60;;;;;;;22.75;100.00;96344.09;5021280;28;20068;-48
2021/07/23 03:02:30;;;;;;;21.25;15.00;;;;;;;23.03;100.00;96351.66;5017652;28;20085;-46
2021/07/23 03:04:59;;;;;;;17.27;13.27;;;;;;;23.17;100.00;96352.31;5029220;28;20551;-44
2021/07/23 03:07:29;;;;;;;21.75;12.73;;;;;;;22.37;100.00;96353.19;5013021;28;20074;-44
2021/07/23 03:09:57;;;;;;;19.38;12.52;;;;;;;22.88;100.00;96349.34;5024569;28;20061;-42
2021/07/23 03:12:26;;;;;;;19.60;12.52;;;;;;;22.90;100.00;96344.53;5022293;28;20065;-45
2021/07/23 03:14:54;;;;;;;24.27;14.57;;;;;;;23.12;100.00;96344.91;5020937;28;20064;-52
2021/07/23 03:17:23;;;;;;;16.92;13.27;;;;;;;22.92;100.00;96347.00;5015787;28;20069;-50
2021/07/23 03:19:51;;;;;;;21.30;15.23;;;;;;;23.00;100.00;96346.72;5027516;28;20076;-44
2021/07/23 03:22:19;;;;;;;22.38;15.38;;;;;;;23.10;100.00;96348.88;5019909;28;20088;-47
2021/07/23 03:24:49;;;;;;;21.77;14.07;;;;;;;22.11;100.00;96351.50;5016795;28;20504;-46
2021/07/23 03:27:18;;;;;;;19.05;14.15;;;;;;;22.41;100.00;96340.13;5019079;28;20068;-51
2021/07/23 03:29:47;;;;;;;23.00;15.65;;;;;;;21.94;100.00;96345.06;5018367;28;20084;-43
2021/07/23 03:32:15;;;;;;;21.35;14.65;;;;;;;21.93;100.00;96338.03;5022360;28;20075;-52
2021/07/23 03:34:44;;;;;;;20.17;14.90;;;;;;;21.83;100.00;96333.16;5017605;28;20103;-50
2021/07/23 03:37:12;;;;;;;24.63;14.25;;;;;;;22.62;100.00;96339.69;5019804;28;20124;-52
2021/07/23 03:39:41;;;;;;;20.83;14.68;;;;;;;22.81;100.00;96331.59;5012898;28;20479;-48
2021/07/23 03:42:11;;;;;;;17.92;14.13;;;;;;;22.94;100.00;96332.31;5018717;28;20520;-48
2021/07/23 03:44:40;;;;;;;23.35;15.07;;;;;;;22.46;100.00;96324.97;5014705;28;20067;-55
2021/07/23 03:47:08;;;;;;;21.40;14.57;;;;;;;23.26;100.00;96332.09;5025397;28;20033;-54
2021/07/23 03:49:36;;;;;;;20.30;14.90;;;;;;;22.58;100.00;96335.00;5014881;28;20066;-55
2021/07/23 03:52:05;;;;;;;23.92;15.00;;;;;;;21.97;100.00;96328.50;5019891;28;20061;-48
2021/07/23 03:54:34;;;;;;;23.13;15.38;;;;;;;22.59;100.00;96328.56;5022909;28;20068;-45
2021/07/23 03:57:04;;;;;;;26.27;16.17;;;;;;;23.00;100.00;96330.59;5013894;28;20069;-47
2021/07/23 03:59:34;;;;;;;26.10;13.63;;;;;;;22.98;100.00;96346.94;5011263;28;20073;-52
2021/07/23 04:02:03;;;;;;;16.88;13.27;;;;;;;22.95;100.00;96343.88;5022937;28;20087;-51
2021/07/23 04:04:32;;;;;;;21.13;13.32;;;;;;;23.24;100.00;96344.16;5019396;28;20133;-46
2021/07/23 04:07:01;;;;;;;24.92;13.57;;;;;;;23.17;100.00;96344.25;5020973;28;20486;-48
2021/07/23 04:09:30;;;;;;;19.98;13.73;;;;;;;23.12;100.00;96344.91;5008110;28;20057;-51
2021/07/23 04:12:00;;;;;;;19.17;14.40;;;;;;;22.97;100.00;96345.31;5012219;28;20068;-50
2021/07/23 04:14:28;;;;;;;22.65;14.88;;;;;;;23.07;100.00;96347.47;5014266;28;20053;-46
2021/07/23 04:16:58;;;;;;;23.17;15.00;;;;;;;23.29;100.00;96352.34;5014380;28;20073;-45
2021/07/23 04:19:26;;;;;;;26.00;15.63;;;;;;;23.63;100.00;96350.84;5023579;28;20473;-46
2021/07/23 04:21:55;;;;;;;21.60;15.98;;;;;;;23.36;100.00;96343.13;5018380;28;20072;-45
2021/07/23 04:24:23;;;;;;;21.02;15.15;;;;;;;23.90;100.00;96338.66;5015239;28;20057;-48
2021/07/23 04:26:52;;;;;;;24.77;15.10;;;;;;;23.58;100.00;96340.78;5019109;28;20064;-48
2021/07/23 04:29:20;;;;;;;19.42;14.90;;;;;;;23.71;100.00;96341.63;5025220;28;20070;-51
2021/07/23 04:31:48;;;;;;;22.27;15.07;;;;;;;23.95;100.00;96335.28;5016347;28;20094;-51
2021/07/23 04:34:18;;;;;;;25.98;15.00;;;;;;;24.37;100.00;96345.97;5019355;28;20065;-48
2021/07/23 04:36:47;;;;;;;20.88;14.52;;;;;;;25.98;99.59;96342.44;5017724;28;20068;-46
2021/07/23 04:39:15;;;;;;;21.65;13.65;;;;;;;26.80;87.60;96343.69;5017218;28;20037;-51
2021/07/23 04:41:43;;;;;;;19.48;13.85;;;;;;;26.47;89.45;96353.53;5014813;28;20089;-48
2021/07/23 04:44:12;;;;;;;21.48;13.18;;;;;;;25.99;100.00;96360.31;5019566;28;20112;-45
2021/07/23 04:46:40;;;;;;;20.67;13.82;;;;;;;25.86;100.00;96366.03;5014574;28;20559;-45
2021/07/23 04:49:09;;;;;;;20.92;14.13;;;;;;;24.65;100.00;96377.63;5003995;28;20498;-47
2021/07/23 04:51:38;;;;;;;20.25;13.50;;;;;;;25.44;100.00;96366.31;5018338;28;20073;-44
2021/07/23 04:54:07;;;;;;;23.70;14.80;;;;;;;25.20;100.00;96360.19;5019253;28;20068;-50
2021/07/23 04:56:35;;;;;;;22.77;15.20;;;;;;;24.98;100.00;96355.41;5017680;28;20085;-53
2021/07/23 04:59:04;;;;;;;23.75;15.40;;;;;;;24.51;100.00;96360.88;5016771;28;20484;-48
2021/07/23 05:01:34;;;;;;;21.27;14.55;;;;;;;24.89;100.00;96359.53;5017037;28;20113;-46
2021/07/23 05:04:03;;;;;;;23.70;15.50;;;;;;;25.80;100.00;96365.94;5020785;28;20069;-50
2021/07/23 05:06:31;;;;;;;25.02;14.65;;;;;;;26.02;100.00;96351.72;5019866;28;20042;-46
2021/07/23 05:09:01;;;;;;;23.20;15.23;;;;;;;26.26;100.00;96358.59;5023336;28;20068;-46
2021/07/23 05:11:29;;;;;;;25.33;14.35;;;;;;;26.11;100.00;96361.03;5022287;28;20092;-46
2021/07/23 05:13:59;;;;;;;19.77;14.98;;;;;;;25.36;100.00;96359.41;5021963;28;20081;-47
2021/07/23 05:16:28;;;;;;;23.90;16.13;;;;;;;24.36;100.00;96355.94;5017434;28;20073;-47
2021/07/23 05:18:56;;;;;;;24.25;17.30;;;;;;;23.62;100.00;96346.50;5027550;28;20477;-46
2021/07/23 05:21:24;;;;;;;21.52;16.73;;;;;;;24.34;100.00;96355.31;5022333;28;20536;-48
2021/07/23 05:23:53;;;;;;;24.65;17.67;;;;;;;25.55;100.00;96351.94;5026267;28;20527;-54
2021/07/23 05:26:23;;;;;;;25.73;19.40;;;;;;;25.48;100.00;96348.59;5016248;28;20091;-45
2021/07/23 05:28:53;;;;;;;24.25;18.98;;;;;;;25.65;100.00;96349.44;5028208;28;20458;-46
2021/07/23 05:31:21;;;;;;;25.15;18.92;;;;;;;25.69;100.00;96350.59;5026116;28;20691;-46
2021/07/23 05:33:50;;;;;;;27.02;19.77;;;;;;;25.24;100.00;96358.66;5020501;28;20061;-45
2021/07/23 05:36:18;;;;;;;25.75;19.60;;;;;;;25.15;100.00;96357.38;5034375;28;20067;-50
2021/07/23 05:38:47;;;;;;;26.75;20.40;;;;;;;25.13;100.00;96354.13;5016510;28;20080;-43
2021/07/23 05:41:15;;;;;;;26.55;19.33;;;;;;;25.00;100.00;96361.38;5023363;28;20306;-45
2021/07/23 05:43:45;;;;;;;26.35;19.73;;;;;;;25.58;100.00;96363.09;5015322;28;20069;-45
2021/07/23 05:46:15;;;;;;;26.52;18.92;;;;;;;25.84;100.00;96360.84;5020815;28;20069;-46
2021/07/23 05:48:43;;;;;;;27.48;19.00;;;;;;;26.13;100.00;96368.94;5018244;28;20519;-47
2021/07/23 05:51:12;;;;;;;26.23;19.45;;;;;;;25.99;100.00;96371.94;5025643;28;20066;-48
2021/07/23 05:53:40;;;;;;;24.75;18.52;;;;;;;26.44;100.00;96367.53;5019858;28;20078;-46
2021/07/23 05:56:09;;;;;;;27.80;19.63;;;;;;;25.96;100.00;96363.50;5023486;28;20079;-45
2021/07/23 05:58:37;;;;;;;25.50;18.90;;;;;;;26.04;100.00;96369.31;5013326;28;20073;-50
2021/07/23 06:01:08;;;;;;;26.80;18.88;;;;;;;26.31;99.97;96365.97;5021857;28;20079;-44
2021/07/23 06:03:37;;;;;;;26.67;18.88;;;;;;;25.67;100.00;96363.53;5021281;28;20064;-45
2021/07/23 06:06:06;;;;;;;28.13;19.35;;;;;;;25.65;100.00;96362.13;5015857;28;20061;-45
2021/07/23 06:08:54;;;;;;;23.70;18.45;;;;;;;26.75;92.60;96363.41;5015028;28;20073;-50
2021/07/23 06:11:23;;;;;;;24.25;18.92;;;;;;;25.35;100.00;96368.56;5019587;28;20087;-45
2021/07/23 06:13:51;;;;;;;26.95;19.23;;;;;;;26.07;100.00;96359.91;5019912;28;20395;-46
2021/07/23 06:16:21;;;;;;;22.00;17.90;;;;;;;25.63;100.00;96366.94;5019267;28;20077;-46
2021/07/23 06:18:49;;;;;;;24.90;19.38;;;;;;;27.39;90.32;96373.69;5017293;28;20479;-48
2021/07/23 06:21:19;;;;;;;23.17;17.52;;;;;;;26.62;97.37;96372.69;5024566;28;20067;-46
2021/07/23 06:23:48;;;;;;;22.98;17.77;;;;;;;27.45;86.11;96372.69;5019313;28;20068;-47
2021/07/23 06:26:16;;;;;;;24.70;18.55;;;;;;;25.67;100.00;96377.03;5016753;28;20081;-51
2021/07/23 06:28:45;;;;;;;25.95;18.48;;;;;;;26.76;92.29;96365.03;5018279;28;20077;-45
2021/07/23 06:31:14;;;;;;;23.42;17.52;;;;;;;25.31;100.00;96370.13;5023897;28;20064;-48
2021/07/23 06:33:44;;;;;;;26.25;17.45;;;;;;;25.36;100.00;96364.00;5023553;28;20062;-51
2021/07/23 06:36:13;;;;;;;24.02;17.20;;;;;;;25.92;100.00;96370.47;5003316;28;20071;-46
2021/07/23 06:38:41;;;;;;;23.52;17.17;;;;;;;27.44;89.15;96358.31;5017285;28;20511;-48
2021/07/23 06:41:10;;;;;;;22.13;17.63;;;;;;;26.73;89.29;96365.53;5023029;28;20488;-52
2021/07/23 06:43:38;;;;;;;22.63;17.30;;;;;;;25.10;100.00;96366.97;5015018;28;20553;-49
2021/07/23 06:46:06;;;;;;;21.35;16.45;;;;;;;26.18;100.00;96367.09;5021295;28;20061;-46
2021/07/23 06:48:36;;;;;;;21.15;16.08;;;;;;;27.19;89.08;96363.47;5019200;28;20073;-47
2021/07/23 06:51:06;;;;;;;23.37;16.83;;;;;;;28.26;78.37;96372.69;5026326;28;20060;-52
2021/07/23 06:53:34;;;;;;;22.13;15.88;;;;;;;27.41;88.78;96372.38;5021752;28;20089;-47
2021/07/23 06:56:03;;;;;;;23.10;16.50;;;;;;;26.37;100.00;96377.69;5025956;28;20076;-50
2021/07/23 06:58:32;;;;;;;24.60;17.20;;;;;;;26.85;99.18;96378.97;5022616;28;20072;-46
2021/07/23 07:01:04;;;;;;;21.60;16.10;;;;;;;28.11;84.95;96375.25;5018488;28;20465;-49
2021/07/23 07:03:33;;;;;;;20.15;16.02;;;;;;;29.23;74.61;96370.59;5016797;28;20065;-49
2021/07/23 07:06:03;;;;;;;19.88;15.90;;;;;;;27.99;83.87;96378.16;5027773;28;20081;-47
2021/07/23 07:08:32;;;;;;;;;;;;;;;27.66;88.18;96371.00;5016026;28;20531;-49
2021/07/23 07:11:02;;;;;;;21.08;16.08;;;;;;;29.19;72.92;96363.25;5017364;28;20385;-45
2021/07/23 07:13:31;;;;;;;21.10;15.65;;;;;;;28.23;82.41;96373.19;5022555;28;20073;-47
2021/07/23 07:16:02;;;;;;;21.45;16.38;;;;;;;27.37;92.14;96373.16;5016469;28;20064;-45
2021/07/23 07:18:30;;;;;;;19.55;15.63;;;;;;;29.07;78.93;96366.19;5017419;28;20072;-45
2021/07/23 07:20:59;;;;;;;19.67;15.85;;;;;;;29.47;68.07;96362.81;5019153;28;20493;-48
2021/07/23 07:23:27;;;;;;;21.48;16.50;;;;;;;28.21;72.89;96372.63;5021454;28;20081;-45
2021/07/23 07:25:57;;;;;;;21.08;16.25;;;;;;;29.34;68.15;96366.84;5021870;28;20543;-48
2021/07/23 07:28:25;;;;;;;20.77;16.05;;;;;;;29.40;71.27;96356.81;5015206;28;20504;-46
2021/07/23 07:30:59;;;;;;;22.17;16.20;;;;;;;30.27;64.35;96357.78;5018763;28;20069;-48
2021/07/23 07:33:29;;;;;;;21.63;16.42;;;;;;;30.06;64.50;96358.03;5018583;28;20077;-45
2021/07/23 07:35:58;;;;;;;23.58;16.77;;;;;;;30.30;63.24;96355.63;5013950;28;20076;-45
2021/07/23 07:38:26;;;;;;;20.08;16.17;;;;;;;30.31;60.64;96352.63;5009275;28;20206;-50
2021/07/23 07:40:55;;;;;;;21.70;15.95;;;;;;;29.81;63.39;96354.22;5017541;28;20115;-51
2021/07/23 07:43:24;;;;;;;22.20;16.05;;;;;;;30.17;61.44;96362.41;5000810;28;20065;-50
2021/07/23 07:45:54;;;;;;;23.67;16.08;;;;;;;29.33;68.25;96353.53;5012507;28;20693;-46
2021/07/23 07:48:23;;;;;;;21.98;15.75;;;;;;;30.95;58.17;96357.44;5015027;28;20057;-52
2021/07/23 07:50:51;;;;;;;21.40;17.00;;;;;;;31.32;54.23;96358.97;5016254;28;20077;-51
2021/07/23 07:53:20;;;;;;;23.30;16.80;;;;;;;31.20;57.61;96355.72;5012682;28;20070;-47
2021/07/23 07:55:48;;;;;;;22.23;16.73;;;;;;;31.17;57.81;96354.34;5017446;28;20523;-49
2021/07/23 07:58:16;;;;;;;22.25;17.52;;;;;;;31.87;53.65;96362.50;5014976;28;20486;-51
2021/07/23 08:00:46;;;;;;;22.08;16.00;;;;;;;31.90;54.24;96356.50;5015259;28;20432;-52
2021/07/23 08:03:15;;;;;;;23.90;16.35;;;;;;;30.85;57.76;96357.47;5014757;28;20475;-47
2021/07/23 08:05:43;;;;;;;23.13;17.35;;;;;;;30.67;57.91;96363.47;5022743;28;21181;-46
2021/07/23 08:08:12;;;;;;;22.58;16.88;;;;;;;31.46;52.26;96352.91;5021372;28;20080;-51
2021/07/23 08:10:45;;;;;;;22.50;17.10;;;;;;;30.38;56.15;96364.03;5009838;28;20066;-57
2021/07/23 08:13:14;;;;;;;23.30;17.50;;;;;;;28.82;65.58;96364.13;5012037;28;20073;-48
2021/07/23 08:15:44;;;;;;;24.30;17.83;;;;;;;29.51;64.89;96361.19;5019944;28;20045;-48
2021/07/23 08:18:15;;;;;;;22.55;16.77;;;;;;;30.15;59.87;96353.72;5018439;28;20109;-50
2021/07/23 08:20:45;;;;;;;24.85;17.30;;;;;;;29.68;62.49;96352.84;5014245;28;20088;-53
2021/07/23 08:23:14;;;;;;;25.00;19.05;;;;;;;29.41;66.56;96357.63;5020120;28;20077;-51
2021/07/23 08:25:42;;;;;;;22.35;16.90;;;;;;;30.20;61.23;96354.53;5018412;28;20104;-50
2021/07/23 08:28:11;;;;;;;23.90;16.38;;;;;;;31.73;58.08;96345.13;5012497;28;20068;-52
2021/07/23 08:30:39;;;;;;;22.40;17.60;;;;;;;31.65;55.16;96351.16;5013970;28;20065;-47
2021/07/23 08:33:08;;;;;;;25.25;17.83;;;;;;;30.94;57.60;96355.81;5012049;28;20080;-52
2021/07/23 08:35:39;;;;;;;25.17;17.50;;;;;;;31.48;57.17;96348.78;5015181;28;20080;-47
2021/07/23 08:38:07;;;;;;;27.05;17.92;;;;;;;31.94;53.42;96351.28;5018898;28;20665;-46
2021/07/23 08:40:36;;;;;;;21.50;18.13;;;;;;;31.96;51.22;96345.53;5021660;28;20065;-45
2021/07/23 08:43:04;;;;;;;22.40;17.00;;;;;;;30.51;57.93;96349.06;5014429;28;20073;-53
2021/07/23 08:45:33;;;;;;;22.45;17.58;;;;;;;30.12;61.78;96348.81;5018091;28;20076;-53
2021/07/23 08:48:01;;;;;;;23.52;17.15;;;;;;;31.88;55.13;96347.75;5023294;28;20068;-48
2021/07/23 08:50:30;;;;;;;24.02;16.15;;;;;;;31.20;53.45;96342.91;5020517;28;20081;-45
2021/07/23 08:53:01;;;;;;;22.23;16.10;;;;;;;29.78;64.25;96352.84;5017500;28;20093;-45
2021/07/23 08:55:32;;;;;;;22.50;16.35;;;;;;;30.71;57.38;96338.16;5017359;28;20070;-49
2021/07/23 08:58:01;;;;;;;21.85;15.57;;;;;;;30.25;59.93;96345.56;5022794;28;20072;-46
2021/07/23 09:00:29;;;;;;;18.88;15.15;;;;;;;30.74;55.71;96348.47;5022634;28;20069;-48
2021/07/23 09:02:59;;;;;;;18.90;14.43;;;;;;;29.83;56.75;96345.78;5017552;28;20073;-51
2021/07/23 09:05:29;;;;;;;18.20;14.05;;;;;;;30.88;50.61;96343.31;5022790;28;20054;-48
2021/07/23 09:08:02;;;;;;;;;;;;;;;31.40;49.34;96335.75;5022382;28;20069;-46
2021/07/23 09:10:31;;;;;;;17.52;13.77;;;;;;;30.89;52.56;96344.13;5015480;28;20003;-51
2021/07/23 09:13:02;;;;;;;16.58;13.02;;;;;;;31.90;45.09;96344.75;5020807;28;20084;-49
2021/07/23 09:15:33;;;;;;;17.95;13.27;;;;;;;31.87;45.77;96345.34;5022963;28;20062;-48
2021/07/23 09:18:03;;;;;;;18.98;14.25;;;;;;;30.89;48.73;96346.84;5027850;28;20073;-51
2021/07/23 09:20:31;;;;;;;18.17;14.35;;;;;;;32.28;46.74;96337.63;5016749;28;20085;-51
2021/07/23 09:23:02;;;;;;;16.33;13.73;;;;;;;30.45;50.03;96337.38;5020798;28;20092;-47
2021/07/23 09:25:38;;;;;;;19.27;14.10;;;;;;;30.91;48.22;96336.50;5015650;28;20080;-51
2021/07/23 09:28:30;;;;;;;14.70;12.40;;;;;;;32.39;43.93;96330.97;5017488;28;20690;-49
2021/07/23 09:30:59;;;;;;;14.57;12.43;;;;;;;30.94;47.21;96335.94;5020676;28;20065;-50
2021/07/23 09:33:37;;;;;;;17.13;12.27;;;;;;;32.57;42.25;96329.47;5023651;28;20073;-49
2021/07/23 09:36:07;;;;;;;17.50;12.30;;;;;;;32.74;45.21;96328.22;5031607;28;20454;-53
2021/07/23 09:38:43;;;;;;;;;;;;;;;32.73;41.83;96321.94;5023666;28;20448;-50
2021/07/23 09:41:12;;;;;;;18.65;13.55;;;;;;;33.29;40.59;96325.94;5019691;28;19944;-48
2021/07/23 09:43:43;;;;;;;18.23;12.98;;;;;;;31.64;44.59;96330.44;5021699;28;20109;-48
2021/07/23 09:46:28;;;;;;;17.67;12.90;;;;;;;31.59;43.75;96314.94;5028587;28;20061;-46
2021/07/23 09:49:00;;;;;;;17.42;12.07;;;;;;;33.14;40.21;96318.75;5018995;28;20065;-46
2021/07/23 09:51:29;;;;;;;16.45;12.68;;;;;;;32.08;42.17;96314.06;5025507;28;20100;-53
2021/07/23 09:53:59;;;;;;;15.38;12.18;;;;;;;32.74;40.21;96309.91;5025316;28;20053;-49
2021/07/23 09:56:27;;;;;;;;;;;;;;;32.72;38.92;96317.56;5005455;28;20065;-49
2021/07/23 09:59:01;;;;;;;16.45;11.98;;;;;;;31.04;42.75;96316.00;5013274;28;19952;-47
2021/07/23 10:01:32;;;;;;;15.23;11.63;;;;;;;32.70;41.02;96308.84;5020344;28;20081;-47
2021/07/23 10:04:06;;;;;;;14.57;12.23;;;;;;;32.90;40.20;96306.97;5027476;28;20076;-58
2021/07/23 10:06:36;;;;;;;15.13;11.90;;;;;;;33.78;39.02;96303.66;5011926;28;20066;-45
2021/07/23 10:09:09;;;;;;;16.08;12.05;;;;;;;32.68;40.75;96305.59;5023322;28;20069;-50
2021/07/23 10:11:40;;;;;;;15.80;11.85;;;;;;;33.70;38.09;96285.19;5025930;28;20077;-49
2021/07/23 10:14:11;;;;;;;14.55;11.90;;;;;;;34.23;38.33;96289.53;5008036;28;20091;-47
2021/07/23 10:16:40;;;;;;;16.42;12.40;;;;;;;32.71;39.43;96291.34;5017449;28;20073;-47
2021/07/23 10:19:09;;;;;;;14.68;11.88;;;;;;;34.55;36.98;96287.91;5016282;28;20070;-51
2021/07/23 10:21:37;;;;;;;15.25;12.27;;;;;;;33.00;37.87;96288.59;5032048;28;20080;-52
2021/07/23 10:24:09;;;;;;;15.68;12.32;;;;;;;32.07;39.67;96285.16;5012975;28;20456;-50
2021/07/23 10:26:37;;;;;;;15.55;12.32;;;;;;;32.63;39.56;96286.53;5019750;28;20078;-51
2021/07/23 10:29:07;;;;;;;15.95;12.52;;;;;;;32.17;38.98;96288.88;5022274;28;20062;-50
2021/07/23 10:31:43;;;;;;;15.05;12.48;;;;;;;32.97;39.30;96280.19;5021990;28;20069;-48
2021/07/23 10:34:13;;;;;;;16.52;12.10;;;;;;;32.15;39.44;96278.25;5015373;28;20041;-49
2021/07/23 10:36:42;;;;;;;15.82;12.85;;;;;;;33.36;37.99;96266.25;5021793;28;20510;-51
2021/07/23 10:39:17;;;;;;;15.18;11.68;;;;;;;33.06;38.14;96264.75;5019878;28;20460;-47
2021/07/23 10:42:31;;;;;;;13.85;11.35;;;;;;;31.92;40.26;96269.72;5024119;28;20068;-49
2021/07/23 10:45:00;;;;;;;15.18;11.88;;;;;;;32.12;40.14;96266.00;5019841;28;20507;-51
2021/07/23 10:47:44;;;;;;;16.85;11.48;;;;;;;32.81;38.38;96255.72;5020454;28;20077;-46
2021/07/23 10:50:46;;;;;;;19.85;11.52;;;;;;;33.28;36.77;96256.78;5023676;28;20452;-52
2021/07/23 10:53:33;;;;;;;13.05;11.07;;;;;;;34.43;36.44;96255.50;5034198;28;20067;-50
2021/07/23 10:56:04;;;;;;;15.25;11.38;;;;;;;34.91;35.67;96260.63;5014920;28;20513;-50
2021/07/23 10:58:35;;;;;;;15.23;12.07;;;;;;;33.12;37.37;96255.38;5017058;28;20069;-51
2021/07/23 11:01:04;;;;;;;15.07;11.70;;;;;;;34.12;36.61;96236.91;5019017;28;20086;-47
2021/07/23 11:03:58;;;;;;;14.77;12.52;;;;;;;35.30;34.48;96242.81;5030353;28;20086;-54
2021/07/23 11:06:33;;;;;;;12.68;10.73;;;;;;;34.59;34.60;96245.13;5028100;28;20500;-51
2021/07/23 11:09:09;;;;;;;15.55;11.70;;;;;;;33.95;34.29;96247.59;5020994;28;20056;-46
2021/07/23 11:11:39;;;;;;;12.48;11.05;;;;;;;34.45;33.48;96242.34;5016409;28;20081;-46
2021/07/23 11:14:15;;;;;;;14.15;11.82;;;;;;;35.62;32.90;96239.09;5001889;28;20163;-48
2021/07/23 11:16:44;;;;;;;16.55;11.50;;;;;;;34.71;33.95;96238.00;5023560;28;20076;-48
2021/07/23 11:19:22;;;;;;;13.73;11.55;;;;;;;34.93;33.60;96242.78;5016210;28;20068;-47
2021/07/23 11:21:51;;;;;;;13.88;10.70;;;;;;;33.09;35.04;96239.56;5027064;28;20072;-50
2021/07/23 11:24:19;;;;;;;15.73;12.07;;;;;;;35.23;34.25;96234.22;5021669;28;20527;-47
2021/07/23 11:26:52;;;;;;;13.65;11.73;;;;;;;35.39;32.67;96227.25;5015677;28;20069;-47